createdAt,value
2019-02-07T00:01:43.374Z,8.18
2019-02-07T00:04:13.117Z,6.33
2019-02-07T00:06:42.719Z,7.55
2019-02-07T00:26:35.331Z,2.47
2019-02-07T00:29:05.233Z,3.55
2019-02-07T00:31:34.768Z,3.10
2019-02-07T00:34:04.496Z,3.08
2019-02-07T00:36:34.116Z,3.05
2019-02-07T00:39:04.143Z,2.20
2019-02-07T00:41:33.781Z,2.70
2019-02-07T00:44:03.827Z,2.17
2019-02-07T00:46:33.399Z,1.98
2019-02-07T00:49:03.071Z,2.12
2019-02-07T00:51:32.823Z,19.20
2019-02-07T00:54:02.444Z,21.27
2019-02-07T00:56:32.256Z,7.33
2019-02-07T00:59:01.952Z,4.53
2019-02-07T01:01:31.540Z,4.28
2019-02-07T01:04:01.287Z,5.17
2019-02-07T01:06:30.854Z,5.10
2019-02-07T01:09:00.409Z,2.92
2019-02-07T01:11:30.243Z,3.45
2019-02-07T01:13:59.722Z,3.67
2019-02-07T01:16:29.411Z,2.52
2019-02-07T01:18:59.167Z,2.62
2019-02-07T01:21:28.857Z,2.47
2019-02-07T01:23:58.382Z,5.22
2019-02-07T01:26:28.161Z,14.55
2019-02-07T01:28:57.897Z,24.75
2019-02-07T01:31:27.493Z,33.98
2019-02-07T01:33:56.997Z,17.48
2019-02-07T01:36:26.796Z,11.63
2019-02-07T01:38:56.606Z,10.60
2019-02-07T01:41:26.235Z,11.40
2019-02-07T01:43:55.818Z,6.22
2019-02-07T01:46:25.397Z,14.15
2019-02-07T01:48:55.250Z,15.38
2019-02-07T01:51:25.161Z,10.48
2019-02-07T01:53:54.695Z,28.32
2019-02-07T01:56:24.501Z,12.15
2019-02-07T01:58:54.159Z,47.80
2019-02-07T02:01:24.012Z,21.68
2019-02-07T02:03:53.635Z,12.35
2019-02-07T02:06:23.291Z,21.17
2019-02-07T02:08:52.888Z,26.40
2019-02-07T02:28:44.869Z,9.43
2019-02-07T02:31:14.666Z,33.73
2019-02-07T02:33:44.177Z,14.85
2019-02-07T02:36:13.778Z,16.75
2019-02-07T02:38:43.427Z,14.75
2019-02-07T02:41:13.103Z,20.92
2019-02-07T02:43:42.731Z,20.05
2019-02-07T02:46:12.459Z,20.20
2019-02-07T02:48:42.160Z,33.70
2019-02-07T02:51:11.684Z,25.55
2019-02-07T02:53:41.454Z,11.50
2019-02-07T02:56:11.265Z,11.05
2019-02-07T02:58:40.937Z,16.60
2019-02-07T03:01:41.033Z,21.07
2019-02-07T03:04:15.932Z,14.00
2019-02-07T03:06:50.788Z,15.65
2019-02-07T03:10:23.739Z,10.53
2019-02-07T03:13:12.568Z,12.55
2019-02-07T03:15:50.022Z,13.45
2019-02-07T03:18:22.861Z,10.93
2019-02-07T03:20:57.856Z,11.97
2019-02-07T03:23:32.724Z,10.58
2019-02-07T03:26:07.480Z,13.88
2019-02-07T03:29:42.092Z,13.98
2019-02-07T03:32:17.661Z,12.53
2019-02-07T03:34:52.390Z,12.73
2019-02-07T03:37:32.969Z,16.45
2019-02-07T03:40:07.721Z,20.92
2019-02-07T03:42:44.373Z,19.95
2019-02-07T03:45:22.204Z,22.22
2019-02-07T03:47:57.012Z,18.37
2019-02-07T03:50:34.810Z,15.43
2019-02-07T03:54:13.538Z,15.38
2019-02-07T03:56:52.062Z,13.70
2019-02-07T04:01:30.847Z,15.23
2019-02-07T04:04:04.572Z,15.88
2019-02-07T04:07:37.305Z,14.43
2019-02-07T04:10:12.258Z,15.75
2019-02-07T04:12:47.102Z,14.73
2019-02-07T04:15:21.731Z,16.20
2019-02-07T04:18:05.491Z,13.05
2019-02-07T04:20:48.264Z,14.65
2019-02-07T04:23:22.937Z,15.90
2019-02-07T04:26:01.356Z,16.17
2019-02-07T04:28:34.991Z,13.08
2019-02-07T04:31:12.755Z,14.25
2019-02-07T04:33:48.608Z,14.83
2019-02-07T04:36:28.082Z,16.80
2019-02-07T04:39:09.634Z,13.80
2019-02-07T04:42:19.597Z,16.30
2019-02-07T04:44:54.156Z,16.82
2019-02-07T04:47:29.855Z,15.43
2019-02-07T04:50:04.579Z,15.80
2019-02-07T04:52:45.452Z,16.97
2019-02-07T04:55:32.235Z,17.25
2019-02-07T04:58:11.888Z,18.65
2019-02-07T05:00:45.685Z,17.32
2019-02-07T05:04:20.654Z,17.67
2019-02-07T05:06:57.631Z,15.95
2019-02-07T05:09:32.429Z,16.62
2019-02-07T05:12:07.043Z,15.43
2019-02-07T05:35:11.127Z,19.27
2019-02-07T05:38:47.032Z,18.00
2019-02-07T05:41:25.017Z,19.75
2019-02-07T05:44:30.416Z,25.27
2019-02-07T05:49:10.387Z,20.20
2019-02-07T05:51:49.208Z,20.90
2019-02-07T05:54:26.748Z,20.92
2019-02-07T05:57:00.643Z,30.92
2019-02-07T06:17:02.802Z,42.53
2019-02-07T06:19:30.289Z,32.28
2019-02-07T06:22:18.979Z,32.35
2019-02-07T06:25:00.424Z,36.88
2019-02-07T06:28:37.731Z,37.88
2019-02-07T06:31:13.515Z,34.38
2019-02-07T06:34:07.717Z,41.40
2019-02-07T06:36:45.167Z,40.23
2019-02-07T06:39:20.155Z,37.23
2019-02-07T06:41:55.042Z,41.80
2019-02-07T06:44:29.878Z,68.30
2019-02-07T06:47:13.283Z,98.30
2019-02-07T06:49:44.422Z,101.80
2019-02-07T06:53:17.284Z,86.65
2019-02-07T06:55:51.872Z,83.82
2019-02-07T06:59:24.341Z,63.63
2019-02-07T07:04:02.498Z,66.55
2019-02-07T07:06:54.403Z,97.22
2019-02-07T07:09:28.086Z,105.83
2019-02-07T07:12:05.863Z,96.20
2019-02-07T07:14:40.299Z,98.58
2019-02-07T07:17:25.437Z,107.63
2019-02-07T07:19:53.833Z,103.27
2019-02-07T07:22:28.607Z,94.07
2019-02-07T07:27:09.780Z,87.88
2019-02-07T07:29:44.597Z,67.32
2019-02-07T07:32:18.273Z,48.87
2019-02-07T07:34:52.994Z,29.95
2019-02-07T07:37:27.806Z,28.02
2019-02-07T07:40:07.431Z,28.32
2019-02-07T07:42:42.275Z,31.80
2019-02-07T07:45:21.364Z,17.92
2019-02-07T07:48:58.114Z,14.73
2019-02-07T07:51:37.831Z,17.57
2019-02-07T07:54:46.901Z,14.70
2019-02-07T07:57:21.717Z,13.68
2019-02-07T08:00:01.190Z,17.20
2019-02-07T08:02:37.232Z,15.98
2019-02-07T08:05:13.280Z,16.70
2019-02-07T08:09:54.647Z,16.40
2019-02-07T08:12:29.484Z,16.35
2019-02-07T08:15:04.084Z,19.45
2019-02-07T08:17:47.704Z,16.45
2019-02-07T08:37:45.592Z,23.80
2019-02-07T08:40:25.274Z,19.92
2019-02-07T08:42:59.901Z,21.02
2019-02-07T08:45:35.652Z,19.55
2019-02-07T08:48:17.514Z,22.87
2019-02-07T08:50:58.452Z,25.55
2019-02-07T08:53:39.027Z,22.05
2019-02-07T08:56:15.763Z,26.77
2019-02-07T08:58:50.624Z,23.80
2019-02-07T09:01:24.387Z,27.58
2019-02-07T09:06:04.161Z,27.10
2019-02-07T09:08:43.702Z,26.15
2019-02-07T09:11:18.736Z,25.70
2019-02-07T09:13:53.786Z,27.58
2019-02-07T09:17:28.664Z,27.15
2019-02-07T09:22:08.557Z,23.32
2019-02-07T09:24:47.541Z,19.98
2019-02-07T09:28:27.277Z,14.63
2019-02-07T09:31:11.104Z,13.90
2019-02-07T09:33:48.802Z,13.08
2019-02-07T09:36:22.679Z,16.75
2019-02-07T09:39:59.281Z,12.05
2019-02-07T09:42:37.159Z,13.22
2019-02-07T09:45:27.967Z,11.90
2019-02-07T09:48:03.625Z,13.13
2019-02-07T09:51:40.832Z,10.75
2019-02-07T09:54:22.503Z,12.10
2019-02-07T09:59:03.583Z,11.88
2019-02-07T10:02:36.900Z,13.48
2019-02-07T10:05:12.775Z,14.05
2019-02-07T10:07:54.727Z,14.13
2019-02-07T10:10:31.508Z,14.43
2019-02-07T10:13:06.272Z,13.78
2019-02-07T10:15:55.956Z,16.62
2019-02-07T10:18:33.277Z,14.73
2019-02-07T10:21:06.267Z,16.05
2019-02-07T10:23:41.062Z,13.58
2019-02-07T10:27:13.524Z,14.58
2019-02-07T10:29:48.287Z,11.63
2019-02-07T10:32:24.120Z,14.30
2019-02-07T10:35:11.034Z,13.43
2019-02-07T10:37:45.948Z,17.05
2019-02-07T10:41:19.860Z,16.15
2019-02-07T10:43:54.367Z,14.58
2019-02-07T10:46:28.065Z,17.90
2019-02-07T10:51:09.440Z,13.85
2019-02-07T10:53:45.749Z,17.05
2019-02-07T10:56:51.923Z,15.05
2019-02-07T11:00:24.429Z,17.52
2019-02-07T11:02:59.639Z,14.40
2019-02-07T11:07:41.324Z,16.77
2019-02-07T11:10:20.095Z,15.88
2019-02-07T11:13:10.775Z,15.10
2019-02-07T11:15:46.228Z,15.75
2019-02-07T11:18:38.890Z,15.98
2019-02-07T11:21:13.769Z,16.73
2019-02-07T11:23:48.494Z,17.12
2019-02-07T11:28:26.945Z,15.35
2019-02-07T11:31:00.573Z,17.17
2019-02-07T11:34:03.480Z,15.60
2019-02-07T11:36:37.287Z,16.55
2019-02-07T11:40:18.875Z,16.45
2019-02-07T11:44:57.552Z,15.58
2019-02-07T11:48:30.729Z,17.80
2019-02-07T11:51:15.312Z,17.02
2019-02-07T12:11:28.616Z,12.20
2019-02-07T12:14:17.765Z,13.45
2019-02-07T12:17:54.135Z,12.33
2019-02-07T12:39:54.454Z,18.57
2019-02-07T12:42:29.240Z,12.50
2019-02-07T13:02:30.946Z,13.62
2019-02-07T13:40:52.272Z,16.25
2019-02-07T13:43:27.040Z,20.95
2019-02-07T13:46:05.926Z,18.77
2019-02-07T13:48:42.725Z,16.87
2019-02-07T13:52:17.153Z,16.95
2019-02-07T13:55:55.895Z,20.57
2019-02-07T14:00:33.278Z,16.75
2019-02-07T14:03:07.070Z,14.85
2019-02-07T14:05:41.798Z,17.32
2019-02-07T14:08:19.758Z,14.68
2019-02-07T14:10:54.436Z,15.13
2019-02-07T14:30:56.372Z,16.10
2019-02-07T14:33:31.166Z,17.07
2019-02-07T14:53:20.829Z,16.00
2019-02-07T15:13:10.164Z,21.52
2019-02-07T15:15:39.944Z,25.32
2019-02-07T15:18:09.627Z,23.32
2019-02-07T15:20:39.567Z,30.40
2019-02-07T15:23:09.153Z,29.30
2019-02-07T15:25:38.818Z,27.20
2019-02-07T15:28:08.661Z,31.10
2019-02-07T15:30:38.208Z,29.75
2019-02-07T15:33:07.663Z,28.83
2019-02-07T15:35:40.114Z,36.10
2019-02-07T15:38:09.863Z,35.58
2019-02-07T15:40:39.511Z,28.70
2019-02-07T15:43:09.452Z,33.58
2019-02-07T15:45:39.262Z,33.75
2019-02-07T15:48:09.140Z,36.53
2019-02-07T15:50:39.011Z,41.00
2019-02-07T15:53:08.950Z,44.50
2019-02-07T15:55:38.809Z,56.18
2019-02-07T15:58:08.655Z,51.53
2019-02-07T16:00:43.524Z,51.25
2019-02-07T16:03:18.822Z,45.78
2019-02-07T16:05:48.531Z,45.40
2019-02-07T16:08:18.239Z,53.52
2019-02-07T16:10:48.153Z,53.58
2019-02-07T16:13:17.725Z,51.83
2019-02-07T16:15:47.345Z,48.80
2019-02-07T16:18:17.225Z,51.13
2019-02-07T16:20:48.867Z,49.23
2019-02-07T16:23:16.263Z,56.85
2019-02-07T16:25:46.048Z,55.12
2019-02-07T16:28:15.641Z,68.05
2019-02-07T16:30:45.385Z,66.62
2019-02-07T16:33:15.680Z,62.75
2019-02-07T16:35:45.321Z,59.83
2019-02-07T16:38:14.789Z,58.05
2019-02-07T16:40:44.362Z,57.17
2019-02-07T16:43:14.734Z,56.10
2019-02-07T16:45:44.432Z,65.30
2019-02-07T16:48:14.251Z,64.00
2019-02-07T16:50:43.901Z,65.92
2019-02-07T16:53:13.564Z,83.65
2019-02-07T16:55:43.544Z,74.72
2019-02-07T16:58:13.140Z,63.00
2019-02-07T17:00:43.060Z,52.20
2019-02-07T17:03:12.849Z,58.20
2019-02-07T17:05:42.475Z,48.80
2019-02-07T17:08:11.981Z,916.47
2019-02-07T17:10:41.962Z,1020.28
2019-02-07T17:13:11.900Z,1039.70
2019-02-07T17:15:41.642Z,900.58
2019-02-07T17:18:11.704Z,500.12
2019-02-07T17:20:41.437Z,1168.15
2019-02-07T17:23:11.059Z,1350.78
2019-02-07T17:25:40.965Z,537.98
2019-02-07T17:28:10.510Z,1129.73
2019-02-07T17:30:40.195Z,1987.88
2019-02-07T17:33:10.043Z,1045.58
2019-02-07T17:35:39.679Z,1999.90
2019-02-07T17:38:12.357Z,1999.90
2019-02-07T17:40:41.988Z,1999.90
2019-02-07T17:43:11.509Z,1999.90
2019-02-07T17:45:41.210Z,1999.90
2019-02-07T17:48:10.697Z,1845.80
2019-02-07T17:50:40.623Z,1560.05
2019-02-07T17:53:10.376Z,1297.20
2019-02-07T17:55:40.101Z,1719.55
2019-02-07T17:58:09.832Z,1779.95
2019-02-07T18:00:46.487Z,1303.73
2019-02-07T18:03:15.881Z,1028.70
2019-02-07T18:05:45.658Z,1109.53
2019-02-07T18:08:15.294Z,59.33
2019-02-07T18:10:45.107Z,63.87
2019-02-07T18:13:14.887Z,53.13
2019-02-07T18:15:44.397Z,68.40
2019-02-07T18:18:13.864Z,38.88
2019-02-07T18:20:43.779Z,45.33
2019-02-07T18:23:13.482Z,46.00
2019-02-07T18:25:43.112Z,42.80
2019-02-07T18:28:12.822Z,43.98
2019-02-07T18:30:42.558Z,46.08
2019-02-07T18:33:12.307Z,45.28
2019-02-07T18:35:42.391Z,43.48
2019-02-07T18:38:12.086Z,43.28
2019-02-07T18:40:41.542Z,47.33
2019-02-07T18:43:11.368Z,49.40
2019-02-07T18:45:40.763Z,42.55
2019-02-07T18:48:10.606Z,39.92
2019-02-07T18:50:40.479Z,38.95
2019-02-07T18:53:10.011Z,36.50
2019-02-07T18:55:39.842Z,33.00
2019-02-07T18:58:09.321Z,34.80
2019-02-07T19:00:39.276Z,35.85
2019-02-07T19:03:09.051Z,32.05
2019-02-07T19:05:38.743Z,31.93
2019-02-07T19:08:08.625Z,32.95
2019-02-07T19:10:38.413Z,33.40
2019-02-07T19:13:07.996Z,32.53
2019-02-07T19:15:42.414Z,30.97
2019-02-07T19:18:11.902Z,31.57
2019-02-07T19:20:41.615Z,58.55
2019-02-07T19:23:11.575Z,89.90
2019-02-07T19:25:41.160Z,63.68
2019-02-07T19:28:10.906Z,35.17
2019-02-07T19:30:40.601Z,36.17
2019-02-07T19:33:10.190Z,46.40
2019-02-07T19:35:39.793Z,42.05
2019-02-07T19:38:09.647Z,44.00
2019-02-07T19:40:39.299Z,45.00
2019-02-07T19:43:09.051Z,42.67
2019-02-07T19:45:38.734Z,44.10
2019-02-07T19:48:08.245Z,43.83
2019-02-07T19:50:37.974Z,42.83
2019-02-07T19:53:07.771Z,62.60
2019-02-07T19:55:37.764Z,64.45
2019-02-07T19:58:07.597Z,74.72
2019-02-07T20:00:39.485Z,78.02
2019-02-07T20:03:07.364Z,98.45
2019-02-07T20:05:36.935Z,96.45
2019-02-07T20:08:06.888Z,100.65
2019-02-07T20:10:36.660Z,105.00
2019-02-07T20:13:06.501Z,94.00
2019-02-07T20:15:38.310Z,92.92
2019-02-07T20:18:08.927Z,95.62
2019-02-07T20:20:38.890Z,78.28
2019-02-07T20:23:08.545Z,66.17
2019-02-07T20:25:38.508Z,68.80
2019-02-07T20:28:08.111Z,62.90
2019-02-07T20:30:39.443Z,64.25
2019-02-07T20:33:09.814Z,63.50
2019-02-07T20:35:39.451Z,66.15
2019-02-07T20:38:10.075Z,68.55
2019-02-07T20:40:39.853Z,64.92
2019-02-07T20:43:10.023Z,61.90
2019-02-07T20:45:39.767Z,61.83
2019-02-07T20:48:10.035Z,72.15
2019-02-07T20:50:39.516Z,60.55
2019-02-07T20:53:09.406Z,59.63
2019-02-07T20:55:39.130Z,56.73
2019-02-07T20:58:08.765Z,60.28
2019-02-07T21:00:39.376Z,52.15
2019-02-07T21:03:09.160Z,54.23
2019-02-07T21:05:38.997Z,56.15
2019-02-07T21:08:08.668Z,52.83
2019-02-07T21:10:38.486Z,47.78
2019-02-07T21:13:07.949Z,87.05
2019-02-07T21:15:37.605Z,104.90
2019-02-07T21:18:07.350Z,94.42
2019-02-07T21:20:36.932Z,84.47
2019-02-07T21:23:06.838Z,76.33
2019-02-07T21:25:42.591Z,74.75
2019-02-07T21:28:12.424Z,60.80
2019-02-07T21:30:41.952Z,52.83
2019-02-07T21:33:11.641Z,101.38
2019-02-07T21:35:41.249Z,70.20
2019-02-07T21:38:11.794Z,57.15
2019-02-07T21:40:41.591Z,56.73
2019-02-07T21:43:11.238Z,65.35
2019-02-07T21:45:40.812Z,73.97
2019-02-07T21:48:11.484Z,68.02
2019-02-07T21:50:41.072Z,69.00
2019-02-07T21:53:10.662Z,64.35
2019-02-07T21:55:40.326Z,57.78
2019-02-07T21:58:10.244Z,60.92
2019-02-07T22:00:41.720Z,55.15
2019-02-07T22:03:13.202Z,51.18
2019-02-07T22:05:43.210Z,51.10
2019-02-07T22:08:12.890Z,47.03
2019-02-07T22:10:42.638Z,46.65
2019-02-07T22:13:12.395Z,44.20
2019-02-07T22:15:41.946Z,36.30
2019-02-07T22:18:11.606Z,37.10
2019-02-07T22:20:41.406Z,47.78
2019-02-07T22:23:11.371Z,37.83
2019-02-07T22:25:41.021Z,36.70
2019-02-07T22:28:10.823Z,38.20
2019-02-07T22:30:40.600Z,33.58
2019-02-07T22:33:10.150Z,34.80
2019-02-07T22:35:39.789Z,33.98
2019-02-07T22:38:09.612Z,33.60
2019-02-07T22:40:39.156Z,32.85
2019-02-07T22:43:08.909Z,34.38
2019-02-07T22:45:38.864Z,34.13
2019-02-07T22:48:08.694Z,36.45
2019-02-07T22:50:38.695Z,36.48
2019-02-07T22:53:08.389Z,34.88
2019-02-07T22:55:38.051Z,31.65
2019-02-07T22:58:08.830Z,33.33
2019-02-07T23:00:50.251Z,32.80
2019-02-07T23:03:20.100Z,32.58
2019-02-07T23:05:49.681Z,32.83
2019-02-07T23:08:19.309Z,33.00
2019-02-07T23:10:48.967Z,35.58
2019-02-07T23:13:18.520Z,33.63
2019-02-07T23:15:48.025Z,33.60
2019-02-07T23:18:17.816Z,34.53
2019-02-07T23:20:47.598Z,36.83
2019-02-07T23:23:17.135Z,35.90
2019-02-07T23:25:46.923Z,31.55
2019-02-07T23:28:16.572Z,32.70
2019-02-07T23:30:46.319Z,30.32
2019-02-07T23:33:15.956Z,26.73
2019-02-07T23:35:45.503Z,26.12
2019-02-07T23:38:14.896Z,28.92
2019-02-07T23:40:44.747Z,29.42
2019-02-07T23:43:14.356Z,33.95
2019-02-07T23:45:44.068Z,33.38
2019-02-07T23:48:13.666Z,31.85
2019-02-07T23:50:43.283Z,29.07
2019-02-07T23:53:14.567Z,30.10
2019-02-07T23:55:42.584Z,32.85
2019-02-07T23:58:12.299Z,31.97
